Time;durP1;ratioP1;P1;durP2;ratioP2;P2;SDS_P1;SDS_P2;PMS_P1;PMS_P2;Temp;Humidity;BMP_temperature;BMP_pressure;BME280_temperature;BME280_humidity;BME280_pressure;Samples;Min_cycle;Max_cycle;Signal;HPM_P1;HPM_P2
2023/08/03 07:02:34;;;;;;;4.40;1.05;;;;;;;16.55;69.67;95531.81;2084687;28;20551;-67
2023/08/03 07:04:59;;;;;;;6.20;1.90;;;;;;;16.69;69.90;95535.88;2088377;28;20575;-66
2023/08/03 07:06:01;;;;;;;4.25;1.10;;;;;;;16.74;69.80;95549.50;2091608;28;20253;-66
2023/08/03 07:08:33;;;;;;;4.72;1.27;;;;;;;16.97;69.85;95539.59;2084011;28;20582;-65
2023/08/03 07:09:34;;;;;;;10.82;1.50;;;;;;;16.94;68.69;95555.72;2079843;28;20572;-66
2023/08/03 07:10:36;;;;;;;9.10;1.23;;;;;;;16.69;68.88;95549.88;2080856;28;20193;-66
2023/08/03 07:11:38;;;;;;;8.88;1.92;;;;;;;16.78;69.01;95540.34;2082439;28;20201;-68
2023/08/03 07:12:39;;;;;;;4.85;1.10;;;;;;;16.87;68.93;95562.44;2083275;28;20200;-68
2023/08/03 07:13:41;;;;;;;3.47;1.10;;;;;;;16.88;67.89;95537.75;2078842;28;20227;-68
2023/08/03 07:14:42;;;;;;;2.97;1.25;;;;;;;17.04;68.49;95550.44;2080853;28;20346;-69
2023/08/03 07:15:44;;;;;;;7.82;1.27;;;;;;;17.07;67.76;95550.19;2084120;28;20207;-69
2023/08/03 07:16:45;;;;;;;5.10;1.15;;;;;;;17.00;68.33;95542.00;2083777;28;20219;-69
2023/08/03 07:17:47;;;;;;;8.52;1.50;;;;;;;16.93;67.98;95548.75;2083859;28;20633;-68
2023/08/03 07:18:49;;;;;;;5.18;1.08;;;;;;;16.87;68.57;95534.25;2083220;28;20253;-69
2023/08/03 07:19:51;;;;;;;10.43;1.38;;;;;;;17.19;68.94;95546.47;2082391;28;20208;-69
2023/08/03 07:20:53;;;;;;;4.35;1.20;;;;;;;17.29;68.48;95552.59;2082767;28;20196;-69
2023/08/03 07:21:54;;;;;;;7.05;1.10;;;;;;;17.46;68.47;95553.72;2079115;28;20285;-69
2023/08/03 07:22:56;;;;;;;4.78;1.13;;;;;;;17.61;68.22;95548.84;2080871;28;20205;-68
2023/08/03 07:23:57;;;;;;;5.22;1.13;;;;;;;17.66;67.56;95550.25;2083781;28;20582;-69
2023/08/03 07:24:58;;;;;;;4.38;1.13;;;;;;;17.50;66.71;95549.00;2081213;28;20205;-69
2023/08/03 07:26:00;;;;;;;7.10;1.52;;;;;;;17.32;67.44;95555.91;2082196;28;20251;-69
2023/08/03 07:27:02;;;;;;;3.75;1.13;;;;;;;17.25;67.85;95553.00;2081988;28;20208;-69
2023/08/03 07:28:04;;;;;;;5.18;1.00;;;;;;;17.53;67.99;95555.81;2079042;28;20361;-68
2023/08/03 07:29:05;;;;;;;5.03;1.35;;;;;;;17.45;67.43;95551.22;2078977;28;20225;-69
2023/08/03 07:30:10;;;;;;;6.10;1.20;;;;;;;17.57;67.64;95555.41;2080847;28;20204;-69
2023/08/03 07:31:14;;;;;;;5.28;1.35;;;;;;;17.78;67.42;95563.16;2080432;28;20207;-69
2023/08/03 07:32:16;;;;;;;4.78;1.10;;;;;;;17.93;66.76;95549.53;2082736;28;20208;-69
2023/08/03 07:33:17;;;;;;;3.55;1.00;;;;;;;17.98;66.47;95549.13;2078961;28;20228;-69
2023/08/03 07:34:19;;;;;;;4.47;1.00;;;;;;;18.01;65.57;95560.25;2079571;28;20290;-69
2023/08/03 07:35:20;;;;;;;2.70;0.95;;;;;;;17.91;65.00;95562.03;2083445;28;20207;-69
2023/08/03 07:36:22;;;;;;;6.40;1.38;;;;;;;17.87;65.07;95539.53;2081529;28;20675;-66
2023/08/03 07:37:23;;;;;;;4.85;0.80;;;;;;;17.81;65.10;95558.59;2079063;28;20193;-66
2023/08/03 07:38:25;;;;;;;3.35;1.02;;;;;;;17.95;66.11;95552.88;2079748;28;20197;-69
2023/08/03 07:39:27;;;;;;;4.15;1.25;;;;;;;18.13;64.96;95541.63;2081441;28;20262;-69
2023/08/03 07:40:28;;;;;;;3.60;1.10;;;;;;;18.21;65.02;95541.75;2081666;28;20571;-69
2023/08/03 07:41:30;;;;;;;3.17;0.90;;;;;;;18.41;65.32;95538.06;2081444;28;20192;-66
2023/08/03 07:42:31;;;;;;;3.58;0.98;;;;;;;17.98;64.78;95543.84;2078899;28;20300;-67
2023/08/03 07:43:33;;;;;;;2.53;0.80;;;;;;;17.75;65.03;95542.31;2080488;28;20751;-67
2023/08/03 07:44:34;;;;;;;3.60;0.95;;;;;;;17.50;65.31;95556.91;2081987;28;20303;-67
2023/08/03 07:45:39;;;;;;;5.95;0.90;;;;;;;17.49;66.18;95541.22;2081440;28;20702;-67
2023/08/03 07:46:44;;;;;;;3.90;0.93;;;;;;;17.25;66.79;95530.06;2082257;28;20707;-66
2023/08/03 07:47:46;;;;;;;3.63;1.17;;;;;;;17.36;67.55;95542.31;2083096;28;20629;-66
2023/08/03 07:48:48;;;;;;;5.47;1.52;;;;;;;17.22;67.50;95542.72;2082301;28;20242;-67
2023/08/03 07:49:53;;;;;;;6.10;1.35;;;;;;;17.23;68.15;95539.09;2082461;28;20201;-67
2023/08/03 07:50:55;;;;;;;3.83;0.90;;;;;;;17.26;67.59;95544.13;2080288;28;20653;-67
2023/08/03 07:51:56;;;;;;;2.70;1.00;;;;;;;17.08;67.25;95546.59;2078786;28;20517;-68
2023/08/03 07:52:58;;;;;;;6.40;1.30;;;;;;;17.10;67.95;95542.00;2080561;28;20690;-67
2023/08/03 07:53:59;;;;;;;1.90;0.73;;;;;;;17.12;67.78;95553.25;2078360;28;20280;-68
2023/08/03 07:55:01;;;;;;;3.38;0.90;;;;;;;17.11;67.71;95560.31;2078602;28;20197;-67
2023/08/03 07:56:03;;;;;;;4.30;1.48;;;;;;;17.12;67.70;95545.34;2078830;28;20205;-67
2023/08/03 07:57:05;;;;;;;5.28;1.00;;;;;;;17.10;68.04;95553.38;2079041;28;20212;-68
2023/08/03 07:58:07;;;;;;;10.35;1.55;;;;;;;17.20;68.15;95549.94;2080128;28;21232;-68
2023/08/03 07:59:10;;;;;;;6.78;1.50;;;;;;;17.23;68.15;95562.84;2079124;28;20220;-67
2023/08/03 08:00:12;;;;;;;4.95;1.00;;;;;;;17.22;67.00;95559.38;2078700;28;20289;-68
2023/08/03 08:01:14;;;;;;;5.03;1.40;;;;;;;17.15;67.30;95558.25;2081740;28;20208;-68
2023/08/03 08:02:16;;;;;;;4.63;1.15;;;;;;;17.15;67.51;95560.88;2081121;28;20284;-67
2023/08/03 08:03:18;;;;;;;3.58;0.90;;;;;;;17.20;67.26;95557.84;2080894;28;20284;-67
2023/08/03 08:04:19;;;;;;;7.78;1.13;;;;;;;17.11;67.88;95562.94;2081808;28;20236;-68
2023/08/03 08:05:22;;;;;;;6.70;2.30;;;;;;;17.17;68.18;95558.13;2084179;28;20506;-67
2023/08/03 08:06:24;;;;;;;4.60;1.05;;;;;;;17.21;67.70;95562.16;2078517;28;20197;-67
2023/08/03 08:07:25;;;;;;;5.32;0.98;;;;;;;17.22;67.80;95566.47;2079718;28;20645;-67
2023/08/03 08:08:27;;;;;;;4.38;0.90;;;;;;;17.16;67.45;95561.72;2079826;28;20229;-67
2023/08/03 08:09:28;;;;;;;2.78;0.88;;;;;;;17.19;67.13;95564.09;2078898;28;20232;-67
2023/08/03 08:10:30;;;;;;;5.05;1.40;;;;;;;17.26;67.50;95570.50;2078571;28;20284;-67
2023/08/03 08:11:31;;;;;;;4.20;1.00;;;;;;;17.25;67.59;95572.28;2079520;28;20275;-67
2023/08/03 08:12:33;;;;;;;4.35;1.00;;;;;;;17.24;67.74;95557.44;2081678;28;20228;-67
2023/08/03 08:13:34;;;;;;;2.97;1.08;;;;;;;17.17;67.53;95558.13;2081170;28;20531;-67
2023/08/03 08:14:36;;;;;;;4.13;1.08;;;;;;;17.27;68.05;95558.97;2081755;28;20228;-68
2023/08/03 08:15:38;;;;;;;6.07;1.25;;;;;;;17.37;67.87;95557.19;2082359;28;20241;-67
2023/08/03 08:16:40;;;;;;;3.55;1.33;;;;;;;17.31;67.90;95557.72;2082531;28;20284;-67
2023/08/03 08:17:42;;;;;;;5.75;1.10;;;;;;;17.51;67.46;95558.59;2081978;28;20712;-66
2023/08/03 08:18:43;;;;;;;5.10;1.20;;;;;;;17.90;65.98;95545.38;2083204;28;20387;-68
2023/08/03 08:19:44;;;;;;;5.97;1.58;;;;;;;18.01;65.50;95565.53;2078025;28;20221;-67
2023/08/03 08:21:00;;;;;;;3.85;0.85;;;;;;;18.15;65.10;95522.00;2074055;28;20799;-67
2023/08/03 08:22:02;;;;;;;4.35;1.00;;;;;;;18.35;64.55;95556.31;2074784;28;20251;-68
2023/08/03 08:23:17;;;;;;;4.25;0.95;;;;;;;18.54;63.61;95536.91;2079925;28;20200;-68
2023/08/03 08:24:19;;;;;;;7.60;1.17;;;;;;;18.46;63.94;95548.19;2079395;28;20282;-67
2023/08/03 08:25:21;;;;;;;3.80;0.90;;;;;;;18.50;64.03;95552.22;2075864;28;20202;-67
2023/08/03 08:26:23;;;;;;;8.07;1.00;;;;;;;18.36;64.11;95544.75;2074899;28;20200;-68
2023/08/03 08:27:25;;;;;;;6.68;0.90;;;;;;;18.14;64.71;95551.22;2073063;28;20193;-68
2023/08/03 08:28:28;;;;;;;5.28;1.05;;;;;;;18.09;64.91;95560.41;2073707;28;20205;-67
2023/08/03 08:29:37;;;;;;;3.42;1.00;;;;;;;17.88;65.79;95571.06;2074742;28;20247;-68
2023/08/03 08:30:39;;;;;;;2.90;0.88;;;;;;;17.74;65.74;95576.78;2074826;28;20213;-68
2023/08/03 08:31:41;;;;;;;7.45;1.38;;;;;;;17.63;66.06;95551.34;2076763;28;20189;-68
2023/08/03 08:32:45;;;;;;;3.33;1.02;;;;;;;17.73;65.85;95575.94;2076325;28;20255;-68
2023/08/03 08:33:47;;;;;;;2.08;0.90;;;;;;;18.00;65.24;95577.06;2076647;28;20193;-68
2023/08/03 08:34:55;;;;;;;4.85;1.20;;;;;;;18.19;64.58;95563.00;2075674;28;20541;-68
2023/08/03 08:35:56;;;;;;;3.25;0.90;;;;;;;18.25;64.98;95573.00;2077249;28;20237;-68
2023/08/03 08:36:58;;;;;;;4.05;1.00;;;;;;;18.12;64.01;95590.97;2077274;28;20254;-68
2023/08/03 08:37:59;;;;;;;5.10;0.80;;;;;;;18.09;64.37;95570.13;2076817;28;20201;-68
2023/08/03 08:39:01;;;;;;;7.05;1.42;;;;;;;18.01;64.76;95565.53;2073193;28;20194;-65
2023/08/03 08:40:03;;;;;;;4.22;0.98;;;;;;;17.97;65.93;95574.72;2073715;28;20205;-66
2023/08/03 08:41:09;;;;;;;4.30;1.20;;;;;;;18.18;65.53;95574.56;2073556;28;20204;-66
2023/08/03 08:42:12;;;;;;;4.18;1.30;;;;;;;18.38;65.57;95577.16;2073560;28;20198;-66
2023/08/03 08:43:14;;;;;;;1.88;0.60;;;;;;;18.30;64.48;95585.81;2073732;28;20205;-66
2023/08/03 08:44:15;;;;;;;5.45;1.10;;;;;;;18.66;64.22;95575.41;2076145;28;20683;-66
2023/08/03 08:45:17;;;;;;;4.40;0.90;;;;;;;18.94;63.70;95593.97;2075770;28;20633;-66
2023/08/03 08:46:19;;;;;;;6.32;1.15;;;;;;;18.58;64.26;95580.59;2079631;28;20250;-66
2023/08/03 08:47:21;;;;;;;3.05;0.70;;;;;;;18.32;64.10;95596.22;2076577;28;20197;-66
2023/08/03 08:48:22;;;;;;;4.22;0.75;;;;;;;18.19;65.36;95599.16;2076331;28;20209;-66
2023/08/03 08:49:27;;;;;;;4.63;0.90;;;;;;;18.07;64.11;95598.50;2072611;28;20225;-66
2023/08/03 08:50:32;;;;;;;4.05;1.00;;;;;;;17.98;65.16;95604.59;2073849;28;20197;-67
2023/08/03 08:51:36;;;;;;;7.10;1.15;;;;;;;18.04;65.99;95591.69;2074182;28;20252;-67
2023/08/03 08:52:44;;;;;;;4.55;0.90;;;;;;;17.95;65.42;95601.28;2074699;28;20254;-67
2023/08/03 08:53:53;;;;;;;7.47;0.90;;;;;;;17.85;65.78;95603.06;2076610;28;20251;-66
2023/08/03 08:55:36;;;;;;;2.97;0.90;;;;;;;17.73;66.18;95607.63;2074524;28;20254;-66
2023/08/03 08:56:40;;;;;;;2.28;0.80;;;;;;;17.79;66.43;95616.81;2077625;28;20247;-67
2023/08/03 08:57:45;;;;;;;2.03;0.80;;;;;;;17.79;65.72;95607.06;2075249;28;20232;-67
2023/08/03 08:58:49;;;;;;;4.65;1.20;;;;;;;17.81;65.71;95608.75;2076045;28;20193;-66
2023/08/03 09:00:02;;;;;;;4.88;0.88;;;;;;;17.82;65.56;95605.13;2075340;28;20197;-67
2023/08/03 09:01:04;;;;;;;2.42;0.88;;;;;;;17.85;66.13;95615.41;2076031;28;20255;-67
2023/08/03 09:02:06;;;;;;;1.83;0.70;;;;;;;17.94;66.86;95618.09;2077325;28;20235;-66
2023/08/03 09:03:07;;;;;;;2.30;0.80;;;;;;;17.93;66.64;95632.25;2078530;28;20539;-67
2023/08/03 09:04:09;;;;;;;5.15;1.20;;;;;;;17.71;66.56;95633.34;2073609;28;20218;-67
2023/08/03 09:05:22;;;;;;;11.18;1.17;;;;;;;17.61;66.73;95624.56;2074440;28;20206;-66
2023/08/03 09:06:26;;;;;;;4.68;0.93;;;;;;;17.58;66.61;95620.38;2075997;28;20251;-67
2023/08/03 09:07:28;;;;;;;2.15;0.70;;;;;;;17.53;67.04;95627.88;2076710;28;20266;-66
2023/08/03 09:08:47;;;;;;;4.82;0.85;;;;;;;17.68;67.17;95635.41;2077382;28;20240;-66
2023/08/03 09:09:49;;;;;;;2.30;0.80;;;;;;;17.68;67.16;95635.41;2075784;28;20208;-66
2023/08/03 09:10:51;;;;;;;4.78;0.90;;;;;;;17.76;67.40;95632.91;2076604;28;20193;-66
2023/08/03 09:11:55;;;;;;;3.72;0.82;;;;;;;17.70;67.35;95629.03;2078125;28;20208;-66
2023/08/03 09:12:58;;;;;;;10.13;1.00;;;;;;;17.73;67.15;95622.63;2076322;28;20900;-67
2023/08/03 09:14:00;;;;;;;2.45;0.88;;;;;;;17.75;67.51;95632.09;2077076;28;20251;-66
2023/08/03 09:15:01;;;;;;;4.10;0.85;;;;;;;17.92;67.58;95642.94;2075595;28;20805;-66
2023/08/03 09:16:03;;;;;;;7.53;1.08;;;;;;;17.88;66.46;95628.34;2076674;28;20210;-66
2023/08/03 09:17:22;;;;;;;4.20;0.88;;;;;;;17.94;66.68;95639.22;2074886;28;20808;-67
2023/08/03 09:18:27;;;;;;;2.42;1.00;;;;;;;17.85;65.97;95633.91;2073923;28;20196;-66
2023/08/03 09:19:36;;;;;;;1.67;0.60;;;;;;;17.87;66.40;95639.88;2074419;28;20262;-67
2023/08/03 09:20:38;;;;;;;1.75;0.70;;;;;;;17.91;66.94;95644.72;2067869;28;20260;-66
2023/08/03 09:21:58;;;;;;;3.90;0.77;;;;;;;17.90;66.29;95656.28;2067674;28;20244;-67
2023/08/03 09:23:03;;;;;;;3.67;0.80;;;;;;;17.85;66.28;95655.00;2075248;28;20402;-67
2023/08/03 09:24:18;;;;;;;3.05;0.70;;;;;;;17.80;66.54;95642.22;2076064;28;20221;-67
2023/08/03 09:25:22;;;;;;;5.13;1.00;;;;;;;17.96;66.74;95644.34;2066788;28;20197;-67
2023/08/03 09:26:40;;;;;;;4.05;0.73;;;;;;;18.05;66.28;95640.88;2069532;28;20230;-67
2023/08/03 09:27:50;;;;;;;3.67;0.80;;;;;;;18.00;65.65;95640.47;2076409;28;20216;-66
2023/08/03 09:28:54;;;;;;;3.28;1.10;;;;;;;17.96;66.13;95662.84;2074646;28;20205;-66
2023/08/03 09:30:00;;;;;;;3.30;1.13;;;;;;;17.89;65.88;95645.84;2079708;28;20193;-67
2023/08/03 09:31:03;;;;;;;2.65;0.73;;;;;;;17.81;65.54;95645.72;2078480;28;20684;-67
2023/08/03 09:32:06;;;;;;;3.55;0.90;;;;;;;17.90;65.79;95658.94;2074852;28;20212;-68
2023/08/03 09:33:27;;;;;;;2.47;0.80;;;;;;;17.89;66.16;95643.19;2076145;28;20201;-67
2023/08/03 09:34:44;;;;;;;2.00;0.70;;;;;;;17.94;65.95;95657.69;2074859;28;20213;-67
2023/08/03 09:35:46;;;;;;;4.65;0.80;;;;;;;18.02;66.03;95654.38;2074896;28;20232;-67
2023/08/03 09:36:50;;;;;;;1.95;0.80;;;;;;;17.95;65.41;95679.66;2074674;28;20205;-67
2023/08/03 09:37:55;;;;;;;3.60;0.75;;;;;;;18.06;65.59;95655.75;2076140;28;20197;-67
2023/08/03 09:39:17;;;;;;;3.28;0.80;;;;;;;18.22;65.43;95659.63;2075158;28;20230;-67
2023/08/03 09:40:23;;;;;;;2.25;0.75;;;;;;;18.26;65.05;95650.47;2075520;28;20198;-67
2023/08/03 09:41:34;;;;;;;3.92;0.95;;;;;;;18.11;65.09;95669.38;2075649;28;20898;-67
2023/08/03 09:42:58;;;;;;;2.65;0.73;;;;;;;18.05;65.68;95661.19;2077455;28;20201;-67
2023/08/03 09:44:05;;;;;;;2.35;0.70;;;;;;;18.17;66.21;95656.56;2075811;28;20200;-68
2023/08/03 09:45:08;;;;;;;5.50;0.82;;;;;;;18.36;66.07;95661.00;2076842;28;20209;-67
2023/08/03 09:46:31;;;;;;;3.28;0.70;;;;;;;18.25;65.57;95664.66;2075931;28;20195;-67
2023/08/03 09:47:36;;;;;;;3.35;0.80;;;;;;;18.24;66.12;95673.56;2076592;28;20202;-68
2023/08/03 09:48:38;;;;;;;1.33;0.70;;;;;;;18.14;65.26;95662.16;2072395;28;20549;-67
2023/08/03 09:49:39;;;;;;;3.40;0.75;;;;;;;18.06;65.54;95671.59;2072976;28;20228;-68
2023/08/03 09:50:47;;;;;;;1.70;0.60;;;;;;;18.12;66.04;95670.22;2089967;28;20227;-67
2023/08/03 09:51:52;;;;;;;6.65;0.70;;;;;;;18.01;65.64;95673.81;2088367;28;20200;-67
2023/08/03 09:53:02;;;;;;;1.35;0.80;;;;;;;18.04;66.15;95678.84;2092231;28;20959;-68
2023/08/03 09:54:42;;;;;;;6.55;0.80;;;;;;;18.09;65.98;95678.41;2085197;28;20229;-67
2023/08/03 09:55:57;;;;;;;6.13;1.17;;;;;;;17.98;66.23;95668.84;2075803;28;20227;-67
2023/08/03 09:57:03;;;;;;;2.15;0.70;;;;;;;18.09;66.19;95681.06;2075656;28;20678;-67
2023/08/03 09:58:12;;;;;;;1.98;0.60;;;;;;;17.87;66.13;95698.78;2075929;28;20208;-67
2023/08/03 09:59:16;;;;;;;4.63;0.80;;;;;;;17.95;65.89;95675.22;2071597;28;20225;-68
2023/08/03 10:00:19;;;;;;;1.50;0.60;;;;;;;18.00;65.91;95671.31;2073859;28;20323;-68
2023/08/03 10:01:24;;;;;;;7.40;1.35;;;;;;;17.99;66.00;95690.78;2074735;28;20668;-68
2023/08/03 10:02:31;;;;;;;4.25;0.80;;;;;;;18.17;66.21;95689.13;2079484;28;20193;-68
2023/08/03 10:03:34;;;;;;;3.97;0.88;;;;;;;18.24;66.06;95690.22;2078987;28;20745;-68
2023/08/03 10:04:43;;;;;;;2.70;0.80;;;;;;;18.25;66.34;95681.34;2071651;28;20630;-68
2023/08/03 10:05:53;;;;;;;3.33;0.80;;;;;;;18.35;65.90;95686.63;2074243;28;20202;-67
2023/08/03 10:07:01;;;;;;;3.60;0.80;;;;;;;18.22;65.21;95672.84;2077701;28;20240;-68
2023/08/03 10:08:10;;;;;;;5.07;0.82;;;;;;;18.12;65.45;95683.44;2076920;28;20923;-68
2023/08/03 10:09:15;;;;;;;4.20;0.80;;;;;;;18.06;65.20;95684.81;2073602;28;20225;-68
2023/08/03 10:10:21;;;;;;;4.55;0.80;;;;;;;17.99;65.23;95688.13;2075648;28;20316;-67
2023/08/03 10:11:29;;;;;;;2.45;0.70;;;;;;;18.05;65.38;95685.78;2076611;28;20197;-67
2023/08/03 10:12:37;;;;;;;5.05;0.90;;;;;;;18.16;65.60;95681.34;2075554;28;20193;-67
2023/08/03 10:13:47;;;;;;;3.50;0.70;;;;;;;18.18;65.69;95689.97;2075584;28;20209;-68
2023/08/03 10:14:51;;;;;;;3.78;0.65;;;;;;;18.32;65.82;95684.28;2072491;28;20275;-68
2023/08/03 10:15:54;;;;;;;3.45;0.80;;;;;;;18.50;65.51;95692.31;2072329;28;20194;-68
2023/08/03 10:16:58;;;;;;;6.80;1.13;;;;;;;18.55;64.51;95690.09;2075108;28;20264;-67
2023/08/03 10:18:00;;;;;;;5.53;1.00;;;;;;;18.59;64.52;95683.53;2075462;28;20293;-67
2023/08/03 10:19:05;;;;;;;2.00;0.70;;;;;;;18.54;64.34;95695.53;2077117;28;20201;-68
2023/08/03 10:20:09;;;;;;;2.58;0.70;;;;;;;18.57;64.70;95684.66;2076608;28;20200;-68
2023/08/03 10:21:11;;;;;;;1.60;0.70;;;;;;;18.59;64.29;95691.47;2075214;28;20205;-68
2023/08/03 10:22:13;;;;;;;1.88;0.70;;;;;;;18.51;64.29;95691.34;2074404;28;20201;-68
2023/08/03 10:23:17;;;;;;;2.20;0.73;;;;;;;18.58;64.26;95699.53;2075744;28;20210;-68
2023/08/03 10:24:19;;;;;;;2.55;0.80;;;;;;;18.62;63.71;95682.41;2074452;28;20221;-69
2023/08/03 10:25:21;;;;;;;3.70;0.70;;;;;;;18.68;63.68;95696.88;2074814;28;20198;-68
2023/08/03 10:26:22;;;;;;;3.17;0.80;;;;;;;18.56;63.98;95678.53;2075247;28;20201;-68
2023/08/03 10:27:24;;;;;;;2.65;0.80;;;;;;;18.53;64.19;95683.28;2077320;28;20201;-68
2023/08/03 10:28:43;;;;;;;4.18;0.80;;;;;;;18.45;64.67;95691.91;2076558;28;20277;-68
2023/08/03 10:29:57;;;;;;;4.50;0.85;;;;;;;18.62;64.57;95698.28;2075228;28;20256;-68
2023/08/03 10:31:14;;;;;;;3.55;0.75;;;;;;;18.53;64.71;95688.56;2075121;28;20213;-68
2023/08/03 10:32:27;;;;;;;4.97;1.05;;;;;;;18.65;64.87;95697.16;2075845;28;20197;-68
2023/08/03 10:33:49;;;;;;;4.45;1.10;;;;;;;18.65;64.48;95703.28;2076045;28;20200;-68
2023/08/03 10:34:52;;;;;;;6.03;1.45;;;;;;;18.71;63.85;95700.06;2074301;28;20233;-68
2023/08/03 10:35:54;;;;;;;1.80;0.60;;;;;;;18.70;64.23;95708.13;2077362;28;20201;-68
2023/08/03 10:36:56;;;;;;;5.43;1.00;;;;;;;18.73;64.05;95690.19;2076632;28;20587;-67
2023/08/03 10:38:00;;;;;;;1.88;0.70;;;;;;;18.90;63.40;95685.16;2072159;28;20210;-68
2023/08/03 10:39:14;;;;;;;1.88;0.70;;;;;;;19.07;62.72;95688.84;2075195;28;20589;-68
2023/08/03 10:40:22;;;;;;;2.15;0.75;;;;;;;19.16;62.40;95689.81;2082199;28;20197;-69
2023/08/03 10:41:30;;;;;;;3.05;0.85;;;;;;;19.38;63.08;95688.63;2075779;28;20229;-68
2023/08/03 10:42:34;;;;;;;3.45;0.60;;;;;;;19.27;62.65;95686.97;2076778;28;21144;-68
2023/08/03 10:43:36;;;;;;;2.15;0.80;;;;;;;19.40;63.01;95691.94;2076228;28;20201;-68
2023/08/03 10:44:37;;;;;;;2.33;0.88;;;;;;;19.61;62.63;95704.94;2074441;28;20307;-69
2023/08/03 10:45:40;;;;;;;2.60;0.80;;;;;;;19.29;62.42;95694.78;2075525;28;20193;-68
2023/08/03 10:46:49;;;;;;;2.85;0.90;;;;;;;19.17;63.16;95702.06;2075241;28;20730;-67
2023/08/03 10:47:53;;;;;;;1.83;0.80;;;;;;;19.38;62.92;95702.69;2074118;28;20285;-67
2023/08/03 10:48:55;;;;;;;2.75;0.70;;;;;;;19.57;62.11;95703.56;2074430;28;20292;-68
2023/08/03 10:49:58;;;;;;;2.92;0.80;;;;;;;19.92;61.80;95702.00;2074349;28;20305;-68
2023/08/03 10:51:02;;;;;;;3.60;0.80;;;;;;;19.89;60.95;95703.13;2076593;28;20202;-67
2023/08/03 10:52:20;;;;;;;5.00;0.80;;;;;;;19.84;61.28;95699.25;2074546;28;20194;-68
2023/08/03 10:53:22;;;;;;;6.70;0.70;;;;;;;19.54;61.76;95704.69;2076682;28;20200;-68
2023/08/03 10:54:30;;;;;;;4.85;1.10;;;;;;;19.60;62.65;95708.56;2076006;28;20230;-67
2023/08/03 10:55:32;;;;;;;5.07;0.85;;;;;;;19.59;62.09;95712.19;2075977;28;20193;-68
2023/08/03 10:56:33;;;;;;;1.80;0.77;;;;;;;19.75;62.38;95706.25;2074998;28;20194;-67
2023/08/03 10:57:35;;;;;;;3.28;0.90;;;;;;;19.82;62.11;95704.72;2075473;28;20201;-67
2023/08/03 10:58:47;;;;;;;5.43;0.90;;;;;;;19.77;61.75;95692.84;2074754;28;20238;-67
2023/08/03 10:59:54;;;;;;;1.98;0.80;;;;;;;19.93;62.63;95706.31;2075172;28;20233;-67
2023/08/03 11:00:56;;;;;;;4.55;1.05;;;;;;;19.73;61.76;95710.84;2071721;28;20292;-67
2023/08/03 11:01:57;;;;;;;6.35;1.00;;;;;;;19.58;62.17;95718.47;2073329;28;20751;-68
2023/08/03 11:02:59;;;;;;;3.25;0.70;;;;;;;19.23;62.47;95707.59;2074979;28;20221;-68
2023/08/03 11:04:02;;;;;;;7.65;0.90;;;;;;;19.29;62.58;95716.78;2074919;28;20210;-68
2023/08/03 11:05:06;;;;;;;1.73;0.70;;;;;;;19.31;62.17;95708.69;2076465;28;20236;-67
2023/08/03 11:06:09;;;;;;;1.80;0.60;;;;;;;19.15;62.25;95709.34;2073917;28;20263;-67
2023/08/03 11:07:15;;;;;;;3.30;0.90;;;;;;;18.92;62.68;95714.97;2075328;28;20608;-67
2023/08/03 11:08:19;;;;;;;2.22;0.70;;;;;;;18.91;63.03;95716.75;2074932;28;20243;-68
2023/08/03 11:09:20;;;;;;;1.67;0.70;;;;;;;18.91;62.26;95708.00;2073618;28;20217;-68
2023/08/03 11:10:22;;;;;;;1.90;0.70;;;;;;;19.08;62.34;95709.91;2073830;28;20241;-68
2023/08/03 11:11:32;;;;;;;2.00;0.80;;;;;;;19.18;62.49;95712.50;2075449;28;20204;-67
2023/08/03 11:12:34;;;;;;;4.35;0.80;;;;;;;19.56;62.06;95709.84;2074316;28;20225;-67
2023/08/03 11:13:36;;;;;;;3.83;0.80;;;;;;;19.63;62.05;95713.56;2076555;28;20289;-67
2023/08/03 11:14:39;;;;;;;2.25;0.80;;;;;;;20.53;61.01;95718.97;2075832;28;20327;-67
2023/08/03 11:15:41;;;;;;;2.58;0.80;;;;;;;20.73;60.25;95716.16;2075719;28;20193;-68
2023/08/03 11:16:42;;;;;;;2.40;0.80;;;;;;;20.41;60.28;95714.88;2074475;28;20194;-67
2023/08/03 11:17:49;;;;;;;2.95;1.00;;;;;;;20.20;60.16;95710.75;2074178;28;20201;-67
2023/08/03 11:18:51;;;;;;;3.58;1.10;;;;;;;20.02;61.72;95715.19;2075140;28;20232;-67
2023/08/03 11:19:53;;;;;;;3.35;0.90;;;;;;;20.02;61.03;95716.03;2075370;28;20284;-67
2023/08/03 11:20:54;;;;;;;4.15;0.77;;;;;;;20.00;60.69;95712.69;2075273;28;20304;-66
2023/08/03 11:21:56;;;;;;;3.20;0.73;;;;;;;20.01;61.04;95721.44;2075293;28;20552;-67
2023/08/03 11:22:57;;;;;;;2.58;0.80;;;;;;;19.97;61.20;95714.78;2076117;28;20197;-67
2023/08/03 11:23:59;;;;;;;3.55;0.70;;;;;;;20.27;60.48;95716.25;2071132;28;20281;-66
2023/08/03 11:25:04;;;;;;;3.90;0.70;;;;;;;20.35;60.48;95712.84;2073228;28;20853;-66
2023/08/03 11:26:08;;;;;;;2.15;0.82;;;;;;;20.35;60.02;95723.44;2071747;28;20198;-66
2023/08/03 11:27:11;;;;;;;3.70;1.00;;;;;;;20.70;60.36;95716.47;2073955;28;20193;-66
2023/08/03 11:28:18;;;;;;;2.53;1.05;;;;;;;21.02;59.61;95715.06;2071666;28;20614;-66
2023/08/03 11:29:19;;;;;;;4.53;1.88;;;;;;;21.22;58.29;95723.63;2073642;28;20236;-66
2023/08/03 11:30:21;;;;;;;4.60;2.20;;;;;;;21.31;58.95;95713.91;2076525;28;20209;-66
2023/08/03 11:31:22;;;;;;;3.00;2.50;;;;;;;21.36;58.46;95711.59;2074466;28;20243;-66
2023/08/03 11:32:29;;;;;;;3.10;1.63;;;;;;;21.12;58.78;95725.56;2076001;28;20196;-67
2023/08/03 11:33:34;;;;;;;3.28;1.33;;;;;;;20.55;58.79;95727.59;2073362;28;20241;-66
2023/08/03 11:34:36;;;;;;;3.40;1.02;;;;;;;20.42;59.65;95715.72;2072683;28;20257;-66
2023/08/03 11:35:38;;;;;;;1.90;0.90;;;;;;;20.43;59.66;95717.38;2075740;28;20202;-66
2023/08/03 11:36:47;;;;;;;7.53;1.60;;;;;;;20.27;60.29;95715.44;2072584;28;20229;-66
2023/08/03 11:37:48;;;;;;;4.30;2.50;;;;;;;20.55;60.33;95719.63;2072125;28;20205;-66
2023/08/03 11:38:51;;;;;;;10.40;6.50;;;;;;;20.30;59.84;95720.41;2074304;28;20729;-66
2023/08/03 11:39:53;;;;;;;2.63;1.42;;;;;;;20.01;60.68;95716.16;2071793;28;20198;-66
2023/08/03 11:40:55;;;;;;;6.32;2.42;;;;;;;19.96;61.01;95736.97;2073163;28;20202;-66
2023/08/03 11:41:57;;;;;;;3.92;1.10;;;;;;;19.67;60.40;95720.25;2071829;28;20202;-65
2023/08/03 11:43:01;;;;;;;1.75;0.70;;;;;;;19.77;60.57;95719.34;2074287;28;20251;-65
2023/08/03 11:44:06;;;;;;;2.42;0.82;;;;;;;20.14;60.38;95727.22;2072936;28;20695;-65
2023/08/03 11:45:08;;;;;;;3.65;1.50;;;;;;;20.10;60.04;95731.19;2074153;28;20197;-65
2023/08/03 11:46:09;;;;;;;3.25;0.77;;;;;;;20.03;60.54;95719.50;2075329;28;20296;-65
2023/08/03 11:47:11;;;;;;;2.03;0.90;;;;;;;20.03;60.90;95725.63;2074251;28;20316;-64
2023/08/03 11:48:13;;;;;;;2.20;0.77;;;;;;;20.01;60.88;95729.41;2074043;28;20209;-65
2023/08/03 11:49:16;;;;;;;3.47;0.95;;;;;;;19.95;60.52;95741.44;2073231;28;20739;-66
2023/08/03 11:50:17;;;;;;;2.22;0.80;;;;;;;20.22;60.24;95714.03;2073972;28;20259;-65
2023/08/03 11:51:21;;;;;;;4.88;0.80;;;;;;;20.32;60.53;95729.06;2074146;28;20204;-65
2023/08/03 11:52:22;;;;;;;2.42;0.93;;;;;;;20.18;60.27;95714.53;2072889;28;20209;-65
2023/08/03 11:53:25;;;;;;;2.17;0.90;;;;;;;20.63;59.73;95736.63;2073614;28;20194;-65
2023/08/03 11:54:29;;;;;;;3.90;0.70;;;;;;;20.66;60.29;95733.66;2072228;28;20248;-65
2023/08/03 11:55:38;;;;;;;3.33;0.70;;;;;;;20.83;59.01;95737.31;2077101;28;20204;-65
2023/08/03 11:56:40;;;;;;;2.17;0.70;;;;;;;20.48;59.67;95723.91;2076193;28;20663;-65
2023/08/03 11:59:08;;;;;;;3.65;0.73;;;;;;;20.13;61.70;95735.34;2075363;28;20205;-65
2023/08/03 12:00:11;;;;;;;2.03;0.60;;;;;;;19.72;61.82;95739.16;2076958;28;20251;-65
2023/08/03 12:01:13;;;;;;;3.70;0.90;;;;;;;19.54;62.57;95739.13;2075927;28;20843;-67
2023/08/03 12:02:16;;;;;;;4.18;0.95;;;;;;;19.45;62.90;95749.75;2076501;28;20233;-66
2023/08/03 12:03:29;;;;;;;7.82;0.80;;;;;;;19.32;63.52;95742.94;2077777;28;20216;-65
2023/08/03 12:04:30;;;;;;;2.30;0.75;;;;;;;19.25;64.34;95747.19;2077202;28;20898;-66
2023/08/03 12:05:44;;;;;;;1.95;0.70;;;;;;;19.32;65.66;95745.59;2075689;28;20233;-66
2023/08/03 12:06:53;;;;;;;2.50;0.85;;;;;;;19.31;65.44;95746.59;2076398;28;20250;-66
2023/08/03 12:07:55;;;;;;;2.92;0.90;;;;;;;19.32;64.82;95756.19;2079377;28;20245;-66
2023/08/03 12:09:00;;;;;;;4.15;1.00;;;;;;;19.25;65.09;95760.41;2076791;28;20276;-66
2023/08/03 12:10:13;;;;;;;3.50;0.80;;;;;;;19.23;65.00;95757.88;2078950;28;20955;-65
2023/08/03 12:11:19;;;;;;;3.25;0.80;;;;;;;19.23;64.73;95752.59;2073770;28;20206;-66